Terminal Aerodrome Forecast
Issued by NWS

Home | Current Version | Previous Version | Text Only | Print | Product List | Glossary On
Versions: 1 2 3 4 5 6 7 8 9 10 11 12 13 14 15 16 17 18 19 20
195
FTUS43 KDLH 230119 AAA
TAFBRD
TAF AMD
KBRD 230119Z 2301/2324 18008KT P6SM SKC
     FM230300 18010KT P6SM SCT250 WS020/20040KT
     FM231400 17012G22KT P6SM SCT250=

USA.gov is the U.S. government's official web portal to all federal, state and local government web resources and services.